Martinsville, IL (62442)

9:32 AM CDT on August 30, 2014 (GMT -0500)
MesoWest I-70 @ IL-49 (or IL 1?) IL US ILDOT | Change Station
CLOSE
Current Station
Personal Weather Station
Location: Marshall, IL
Elevation: 609 ft
Nearby Weather Stations

Elev 609 ft 39.42 °N, 87.69 °W | Updated 37 minutes ago

Partly Cloudy
Partly Cloudy
74 °F
Feels Like 71 °F
N
10
Wind Variable Wind from North
Gusts 14.0 mph

Today
High -- | Low -- °F
--% Chance of Precip.
Yesterday
High -- | Low -- °F
Precip. -- in
6:18 AM 7:25 PM
Waxing Crescent, 22% visible
Pressure 29.96 in
Visibility 10.0 miles
Clouds Clear
Heat Index 71 °F
Dew Point 72 °F
Humidity 95%
Rainfall -999.00 in
Snow Depth Not available.
UV 3 out of 12
Pollen 8.60 out of 12
Air Quality Not available.
Flu Activity Not available.
METAR KMTO 301353Z AUTO 20008KT 10SM CLR 23/20 A2997 RMK AO2 SLP144 T02330200

More Conditions Fewer Conditions

Pressure 29.96 in
Visibility 10.0 miles
Clouds Clear
Heat Index 71 °F
Dew Point 72 °F
Humidity 95%
Rainfall -999.00 in
Snow Depth Not available.
UV 3 out of 12
Pollen 8.60 out of 12
Air Quality Not available.
Flu Activity Not available.
METAR KMTO 301353Z AUTO 20008KT 10SM CLR 23/20 A2997 RMK AO2 SLP144 T02330200

More Conditions Fewer Conditions

10-Day Weather Forecast

Almanac

Astronomy

Aug. 30, 2014 Rise Set
Actual Time 6:18 AM CDT 7:25 PM CDT
Civil Twilight 5:50 AM CDT 7:52 PM CDT
Nautical Twilight 5:17 AM CDT 8:25 PM CDT
Astronomical Twilight 4:43 AM CDT 8:59 PM CDT
Moon 11:03 AM CDT 10:01 PM CDT
Length of Visible Light 14h 02m
Length of Day
13h 07m
Tomorrow will be 2m 27s shorter.
Waxing Crescent, 22% of the Moon is Illuminated
Today
Waxing Crescent
Sep 2
First Quarter
Sep 8
Full
Sep 15
Last Quarter
Sep 24
New

Today's Extremes

State Highs State Lows

Community

WunderPhotos

Upload Photos

1,748,523 photos uploaded!

WunderBlogs® & News

Nearby

Snow Depth

Station Depth Elevation
No new snow has been reported.

Earthquake Activity

City Distance Mag. Time & Date
No recent earthquake activity has been reported nearby.
Minimum magnitude displayed is 2.5.

Coastal Water Temperatures

Place Temperature
No Stations Reporting

Nearby Weather Stations